Time;durP1;ratioP1;P1;durP2;ratioP2;P2;SDS_P1;SDS_P2;PMS_P1;PMS_P2;Temp;Humidity;BMP_temperature;BMP_pressure;BME280_temperature;BME280_humidity;BME280_pressure;Samples;Min_cycle;Max_cycle;Signal;HPM_P1;HPM_P2
2023/04/16 00:00:02;;;;;;;64.53;43.63;;;;;;;;;;4995449;28;20026;-64
2023/04/16 00:02:28;;;;;;;62.63;40.70;;;;;;;;;;5012813;28;20022;-65
2023/04/16 00:04:54;;;;;;;62.58;41.05;;;;;;;;;;5012166;28;20104;-64
2023/04/16 00:07:20;;;;;;;59.40;38.67;;;;;;;;;;4995416;28;20117;-64
2023/04/16 00:09:46;;;;;;;64.47;42.63;;;;;;;;;;5012977;28;20524;-64
2023/04/16 00:12:12;;;;;;;55.45;39.10;;;;;;;;;;5012915;28;20026;-64
2023/04/16 00:14:38;;;;;;;63.72;39.88;;;;;;;;;;5012110;28;20394;-64
2023/04/16 00:17:04;;;;;;;64.95;41.83;;;;;;;;;;5013018;28;20081;-64
2023/04/16 00:19:30;;;;;;;64.15;42.83;;;;;;;;;;5013909;28;20585;-64
2023/04/16 00:21:56;;;;;;;69.32;42.45;;;;;;;;;;4996383;28;20026;-63
2023/04/16 00:24:22;;;;;;;64.85;41.33;;;;;;;;;;5012030;28;20080;-63
2023/04/16 00:26:48;;;;;;;65.18;42.47;;;;;;;;;;5000197;28;20022;-64
2023/04/16 00:29:14;;;;;;;66.72;42.58;;;;;;;;;;5012551;28;20061;-64
2023/04/16 00:31:40;;;;;;;60.97;42.70;;;;;;;;;;5012698;28;20029;-64
2023/04/16 00:34:06;;;;;;;64.40;41.72;;;;;;;;;;5013073;28;20018;-64
2023/04/16 00:36:32;;;;;;;56.65;38.95;;;;;;;;;;5013603;28;20057;-66
2023/04/16 00:38:58;;;;;;;63.05;41.45;;;;;;;;;;5011169;28;20030;-64
2023/04/16 00:41:25;;;;;;;59.67;39.80;;;;;;;;;;5012426;28;20080;-63
2023/04/16 00:43:51;;;;;;;65.15;43.03;;;;;;;;;;5011567;28;20418;-64
2023/04/16 00:46:18;;;;;;;67.22;43.33;;;;;;;;;;5012150;28;20112;-64
2023/04/16 00:48:44;;;;;;;65.13;42.03;;;;;;;;;;4994635;28;20076;-64
2023/04/16 00:51:11;;;;;;;61.30;41.22;;;;;;;;;;5012297;28;20033;-64
2023/04/16 00:53:37;;;;;;;58.13;40.15;;;;;;;;;;5011299;28;20057;-64
2023/04/16 00:56:04;;;;;;;64.88;42.40;;;;;;;;;;4994454;28;20109;-64
2023/04/16 00:58:31;;;;;;;66.82;42.00;;;;;;;;;;5011970;28;20022;-64
2023/04/16 01:00:57;;;;;;;66.15;41.00;;;;;;;;;;5012238;28;20450;-63
2023/04/16 01:03:23;;;;;;;65.70;44.60;;;;;;;;;;4993916;28;20113;-64
2023/04/16 01:05:50;;;;;;;67.60;44.42;;;;;;;;;;5011945;28;20034;-64
2023/04/16 01:08:20;;;;;;;79.28;46.33;;;;;;;;;;5011791;28;20467;-64
2023/04/16 01:10:46;;;;;;;66.20;44.25;;;;;;;;;;5011481;28;20505;-64
2023/04/16 01:13:12;;;;;;;69.80;43.50;;;;;;;;;;5011049;28;20026;-64
2023/04/16 01:15:38;;;;;;;65.60;43.78;;;;;;;;;;5011596;28;20042;-64
2023/04/16 01:18:17;;;;;;;64.93;45.33;;;;;;;;;;5011663;28;20124;-64
2023/04/16 01:20:43;;;;;;;64.47;44.85;;;;;;;;;;5011549;28;20100;-64
2023/04/16 01:23:10;;;;;;;67.72;42.88;;;;;;;;;;4993617;28;20113;-63
2023/04/16 01:25:36;;;;;;;64.13;44.17;;;;;;;;;;4994429;28;20107;-63
2023/04/16 01:28:02;;;;;;;61.25;42.97;;;;;;;;;;5011732;28;20025;-64
2023/04/16 01:30:28;;;;;;;76.15;44.72;;;;;;;;;;5011526;28;20026;-64
2023/04/16 01:32:54;;;;;;;63.72;42.40;;;;;;;;;;5011851;28;20026;-64
2023/04/16 01:35:20;;;;;;;56.97;39.25;;;;;;;;;;5011118;28;20022;-64
2023/04/16 01:37:46;;;;;;;65.47;44.22;;;;;;;;;;4994039;28;20033;-64
2023/04/16 01:40:12;;;;;;;57.38;39.83;;;;;;;;;;5011411;28;20018;-64
2023/04/16 01:42:38;;;;;;;58.03;40.65;;;;;;;;;;4993813;28;20025;-64
2023/04/16 01:45:05;;;;;;;58.42;40.17;;;;;;;;;;5010815;28;20034;-64
2023/04/16 01:47:31;;;;;;;61.03;40.50;;;;;;;;;;5011358;28;20053;-63
2023/04/16 01:49:57;;;;;;;51.10;37.15;;;;;;;;;;5011044;28;20078;-64
2023/04/16 01:52:23;;;;;;;56.67;36.92;;;;;;;;;;5011063;28;20050;-64
2023/04/16 01:54:48;;;;;;;56.55;39.15;;;;;;;;;;5010308;28;20034;-64
2023/04/16 01:57:14;;;;;;;58.75;38.38;;;;;;;;;;5010870;28;20034;-64
2023/04/16 01:59:40;;;;;;;52.95;37.78;;;;;;;;;;5010782;28;20132;-64
2023/04/16 02:02:11;;;;;;;57.55;38.25;;;;;;;;;;5010858;28;20668;-64
2023/04/16 02:04:38;;;;;;;62.05;40.45;;;;;;;;;;4992690;28;20025;-64
2023/04/16 02:07:04;;;;;;;59.42;37.65;;;;;;;;;;5011020;28;20034;-64
2023/04/16 02:09:31;;;;;;;54.13;34.90;;;;;;;;;;5010889;28;20018;-64
2023/04/16 02:11:57;;;;;;;57.45;36.42;;;;;;;;;;5010960;28;20049;-64
2023/04/16 02:14:24;;;;;;;57.80;38.75;;;;;;;;;;5009998;28;20034;-64
2023/04/16 02:16:50;;;;;;;61.58;37.10;;;;;;;;;;4993048;28;20092;-64
2023/04/16 02:19:17;;;;;;;56.95;37.35;;;;;;;;;;5010663;28;20044;-64
2023/04/16 02:21:43;;;;;;;64.97;39.13;;;;;;;;;;4993008;28;20018;-64
2023/04/16 02:24:09;;;;;;;65.63;39.65;;;;;;;;;;5009233;28;20037;-64
2023/04/16 02:26:35;;;;;;;68.28;41.65;;;;;;;;;;4993172;28;20032;-64
2023/04/16 02:29:01;;;;;;;67.97;39.38;;;;;;;;;;5010517;28;20518;-64
2023/04/16 02:31:27;;;;;;;72.07;41.90;;;;;;;;;;5010514;28;20026;-64
2023/04/16 02:33:54;;;;;;;65.65;40.42;;;;;;;;;;5009867;28;20018;-64
2023/04/16 02:36:20;;;;;;;66.45;40.90;;;;;;;;;;4992608;28;20445;-64
2023/04/16 02:38:46;;;;;;;64.93;40.38;;;;;;;;;;5010233;28;20029;-64
2023/04/16 02:41:12;;;;;;;61.67;39.75;;;;;;;;;;5011693;28;20066;-64
2023/04/16 02:43:38;;;;;;;61.45;41.47;;;;;;;;;;4993654;28;20025;-64
2023/04/16 02:46:04;;;;;;;67.93;42.33;;;;;;;;;;5012140;28;20037;-70
2023/04/16 02:48:30;;;;;;;61.88;38.40;;;;;;;;;;5010869;28;20080;-65
2023/04/16 02:50:56;;;;;;;62.92;39.42;;;;;;;;;;5010818;28;20066;-63
2023/04/16 02:53:22;;;;;;;56.53;36.28;;;;;;;;;;5009852;28;20034;-63
2023/04/16 02:55:51;;;;;;;60.50;36.67;;;;;;;;;;5010246;28;20042;-63
2023/04/16 02:58:18;;;;;;;55.38;36.92;;;;;;;;;;5004167;28;20024;-64
2023/04/16 03:00:44;;;;;;;59.20;37.00;;;;;;;;;;5010060;28;20029;-64
2023/04/16 03:03:10;;;;;;;58.47;38.80;;;;;;;;;;5009273;28;20367;-64
2023/04/16 03:05:36;;;;;;;59.30;36.47;;;;;;;;;;5009736;28;20014;-64
2023/04/16 03:08:03;;;;;;;55.55;36.42;;;;;;;;;;5010277;28;20553;-64
2023/04/16 03:10:29;;;;;;;56.40;37.20;;;;;;;;;;5010198;28;20100;-64
2023/04/16 03:12:55;;;;;;;56.38;36.67;;;;;;;;;;4992368;28;20478;-63
2023/04/16 03:15:21;;;;;;;52.10;35.45;;;;;;;;;;4992055;28;20078;-64
2023/04/16 03:17:46;;;;;;;53.17;37.90;;;;;;;;;;4998819;28;20038;-64
2023/04/16 03:20:13;;;;;;;56.40;37.28;;;;;;;;;;5009868;28;20021;-64
2023/04/16 03:22:39;;;;;;;53.25;34.17;;;;;;;;;;5010097;28;20033;-64
2023/04/16 03:25:06;;;;;;;54.47;35.65;;;;;;;;;;5009265;28;20033;-64
2023/04/16 03:27:32;;;;;;;59.17;35.53;;;;;;;;;;5010129;28;20030;-64
2023/04/16 03:29:58;;;;;;;56.30;35.38;;;;;;;;;;5009811;28;20061;-64
2023/04/16 03:32:24;;;;;;;56.30;35.35;;;;;;;;;;5009798;28;20064;-64
2023/04/16 03:34:50;;;;;;;54.05;35.15;;;;;;;;;;4994909;28;20061;-64
2023/04/16 03:37:16;;;;;;;55.95;34.42;;;;;;;;;;4996028;28;20442;-64
2023/04/16 03:39:42;;;;;;;53.25;35.63;;;;;;;;;;4996021;28;20018;-64
2023/04/16 03:42:08;;;;;;;49.65;34.85;;;;;;;;;;5013337;28;20637;-64
2023/04/16 03:44:35;;;;;;;58.17;38.13;;;;;;;;;;5012731;28;20478;-64
2023/04/16 03:47:01;;;;;;;54.13;35.88;;;;;;;;;;5013404;28;20403;-64
2023/04/16 03:49:27;;;;;;;54.45;34.92;;;;;;;;;;5013440;28;20033;-63
2023/04/16 03:51:53;;;;;;;58.97;37.40;;;;;;;;;;5013658;28;20026;-63
2023/04/16 03:54:19;;;;;;;58.58;37.22;;;;;;;;;;4995514;28;20156;-63
2023/04/16 03:56:45;;;;;;;59.20;35.40;;;;;;;;;;5013499;28;20074;-64
2023/04/16 03:59:11;;;;;;;52.33;35.47;;;;;;;;;;5013407;28;20073;-64
2023/04/16 04:01:37;;;;;;;52.70;34.88;;;;;;;;;;5013328;28;20359;-64
2023/04/16 04:04:03;;;;;;;53.25;36.45;;;;;;;;;;5012305;28;20113;-65
2023/04/16 04:06:29;;;;;;;53.38;34.25;;;;;;;;;;5005172;28;20042;-64
2023/04/16 04:08:56;;;;;;;54.15;36.25;;;;;;;;;;5012282;28;20077;-64
2023/04/16 04:11:21;;;;;;;49.45;35.67;;;;;;;;;;5012920;28;20032;-64
2023/04/16 04:13:47;;;;;;;60.28;36.30;;;;;;;;;;4996063;28;20403;-64
2023/04/16 04:16:13;;;;;;;53.30;34.53;;;;;;;;;;5012954;28;20056;-64
2023/04/16 04:18:39;;;;;;;53.70;35.20;;;;;;;;;;5010076;28;20014;-64
2023/04/16 04:21:06;;;;;;;52.10;36.95;;;;;;;;;;5012858;28;20018;-64
2023/04/16 04:23:32;;;;;;;50.13;34.67;;;;;;;;;;5012178;28;20049;-64
2023/04/16 04:25:58;;;;;;;54.65;35.38;;;;;;;;;;5003186;28;20022;-64
2023/04/16 04:28:24;;;;;;;53.13;35.38;;;;;;;;;;4994952;28;20021;-64
2023/04/16 04:30:50;;;;;;;50.53;35.30;;;;;;;;;;5002187;28;20036;-64
2023/04/16 04:33:16;;;;;;;53.42;34.92;;;;;;;;;;5010624;28;20129;-64
2023/04/16 04:35:42;;;;;;;51.42;35.90;;;;;;;;;;5011474;28;20029;-62
2023/04/16 04:38:08;;;;;;;47.50;33.72;;;;;;;;;;5012627;28;20014;-62
2023/04/16 04:40:34;;;;;;;55.40;36.83;;;;;;;;;;5012273;28;20109;-63
2023/04/16 04:43:00;;;;;;;48.85;33.95;;;;;;;;;;5012659;28;20021;-64
2023/04/16 04:45:26;;;;;;;51.22;33.85;;;;;;;;;;5011442;28;20105;-63
2023/04/16 04:47:52;;;;;;;54.42;35.00;;;;;;;;;;5012422;28;20089;-64
2023/04/16 04:50:18;;;;;;;46.85;33.72;;;;;;;;;;5012883;28;20368;-64
2023/04/16 04:52:44;;;;;;;47.05;33.38;;;;;;;;;;5015913;28;20113;-64
2023/04/16 04:55:11;;;;;;;48.38;32.42;;;;;;;;;;4994578;28;20018;-64
2023/04/16 04:57:37;;;;;;;51.28;31.38;;;;;;;;;;5012659;28;20022;-64
2023/04/16 05:00:03;;;;;;;47.78;31.83;;;;;;;;;;5012261;28;20060;-64
2023/04/16 05:02:29;;;;;;;47.00;31.15;;;;;;;;;;5012557;28;20149;-64
2023/04/16 05:04:55;;;;;;;46.78;30.10;;;;;;;;;;5011728;28;20488;-64
2023/04/16 05:07:21;;;;;;;44.22;31.70;;;;;;;;;;5013325;28;20112;-65
2023/04/16 05:09:47;;;;;;;46.60;31.15;;;;;;;;;;5002833;28;20032;-64
2023/04/16 05:12:13;;;;;;;44.95;31.30;;;;;;;;;;5015970;28;20030;-65
2023/04/16 05:14:39;;;;;;;46.17;29.55;;;;;;;;;;5013174;28;20030;-64
2023/04/16 05:17:06;;;;;;;51.53;30.88;;;;;;;;;;5012283;28;20088;-64
2023/04/16 05:19:32;;;;;;;47.78;32.00;;;;;;;;;;5011878;28;20022;-64
2023/04/16 05:21:59;;;;;;;45.72;30.48;;;;;;;;;;5012067;28;20100;-64
2023/04/16 05:24:24;;;;;;;45.70;31.05;;;;;;;;;;5011021;28;20026;-62
2023/04/16 05:26:50;;;;;;;49.92;31.25;;;;;;;;;;5011681;28;20083;-64
2023/04/16 05:29:17;;;;;;;45.88;31.45;;;;;;;;;;5016615;23;20703;-64
2023/04/16 05:31:43;;;;;;;47.90;33.97;;;;;;;;;;4995621;28;20409;-64
2023/04/16 05:34:09;;;;;;;48.33;32.67;;;;;;;;;;4994886;28;20117;-64
2023/04/16 05:36:35;;;;;;;47.67;31.55;;;;;;;;;;5012898;28;20029;-64
2023/04/16 05:39:01;;;;;;;51.58;31.73;;;;;;;;;;5012946;28;20026;-64
2023/04/16 05:41:27;;;;;;;50.92;31.17;;;;;;;;;;5016180;28;20014;-63
2023/04/16 05:43:53;;;;;;;43.50;31.58;;;;;;;;;;5027643;28;20029;-63
2023/04/16 05:46:19;;;;;;;45.17;30.25;;;;;;;;;;5013046;28;20372;-64
2023/04/16 05:48:45;;;;;;;47.85;30.67;;;;;;;;;;5004557;28;20037;-64
2023/04/16 05:51:11;;;;;;;45.38;32.00;;;;;;;;;;4975768;28;20499;-65
2023/04/16 05:53:37;;;;;;;46.63;32.20;;;;;;;;;;4992394;28;20041;-64
2023/04/16 05:56:03;;;;;;;47.83;31.75;;;;;;;;;;4975570;28;20042;-64
2023/04/16 05:58:29;;;;;;;45.80;33.00;;;;;;;;;;5010401;28;20157;-65
2023/04/16 06:00:55;;;;;;;49.22;33.83;;;;;;;;;;5012795;28;20022;-63
2023/04/16 06:03:21;;;;;;;47.42;33.35;;;;;;;;;;5011726;28;20550;-64
2023/04/16 06:05:47;;;;;;;49.60;32.88;;;;;;;;;;4994783;28;20061;-64
2023/04/16 06:08:13;;;;;;;51.92;35.15;;;;;;;;;;4995143;28;20060;-64
2023/04/16 06:10:39;;;;;;;49.70;33.33;;;;;;;;;;5012246;28;20378;-64
2023/04/16 06:13:05;;;;;;;54.30;35.35;;;;;;;;;;5011666;28;20081;-65
2023/04/16 06:15:31;;;;;;;51.22;34.03;;;;;;;;;;4994720;28;20091;-64
2023/04/16 06:17:57;;;;;;;49.80;33.90;;;;;;;;;;4992632;28;20550;-64
2023/04/16 06:20:23;;;;;;;49.75;33.00;;;;;;;;;;5015725;28;20467;-64
2023/04/16 06:22:49;;;;;;;47.90;33.75;;;;;;;;;;5012324;28;20410;-64
2023/04/16 06:25:15;;;;;;;50.58;34.25;;;;;;;;;;5013651;28;20505;-64
2023/04/16 06:27:41;;;;;;;46.20;31.95;;;;;;;;;;5021957;28;20447;-64
2023/04/16 06:30:11;;;;;;;50.33;34.15;;;;;;;;;;5010632;28;20040;-64
2023/04/16 06:32:38;;;;;;;43.70;32.20;;;;;;;;;;5011854;28;20022;-65
2023/04/16 06:35:04;;;;;;;47.40;32.38;;;;;;;;;;5006613;28;20029;-64
2023/04/16 06:37:30;;;;;;;50.45;35.05;;;;;;;;;;5015750;28;20083;-64
2023/04/16 06:39:56;;;;;;;49.95;34.00;;;;;;;;;;5007768;28;20472;-64
2023/04/16 06:42:22;;;;;;;44.40;29.30;;;;;;;;;;5019922;28;20042;-64
2023/04/16 06:44:48;;;;;;;49.47;32.90;;;;;;;;;;5010078;28;20109;-65
2023/04/16 06:47:15;;;;;;;47.28;32.08;;;;;;;;;;5010594;28;20061;-64
2023/04/16 06:49:41;;;;;;;44.17;32.42;;;;;;;;;;5010756;28;20041;-64
2023/04/16 06:52:07;;;;;;;45.33;31.63;;;;;;;;;;5012051;28;20036;-65
2023/04/16 06:54:33;;;;;;;52.30;33.75;;;;;;;;;;5009918;28;20577;-64
2023/04/16 06:56:59;;;;;;;45.72;32.67;;;;;;;;;;5011651;28;20108;-64
2023/04/16 06:59:25;;;;;;;46.15;32.35;;;;;;;;;;5010451;28;20137;-64
2023/04/16 07:01:51;;;;;;;44.28;29.80;;;;;;;;;;5010454;28;20076;-62
2023/04/16 07:04:17;;;;;;;42.00;29.90;;;;;;;;;;5006778;28;20025;-62
2023/04/16 07:06:43;;;;;;;44.33;30.48;;;;;;;;;;5019887;28;20060;-66
2023/04/16 07:09:09;;;;;;;43.10;29.15;;;;;;;;;;5024289;28;20025;-66
2023/04/16 07:11:36;;;;;;;40.75;28.23;;;;;;;;;;5026472;28;20413;-67
2023/04/16 07:14:02;;;;;;;42.72;28.80;;;;;;;;;;5013216;28;20069;-65
2023/04/16 07:16:28;;;;;;;45.78;31.48;;;;;;;;;;5023523;28;20157;-66
2023/04/16 07:18:54;;;;;;;39.28;27.45;;;;;;;;;;5015551;28;20057;-65
2023/04/16 07:21:20;;;;;;;45.75;30.15;;;;;;;;;;5015559;28;20026;-66
2023/04/16 07:23:46;;;;;;;47.80;30.38;;;;;;;;;;5015403;28;20049;-65
2023/04/16 07:26:12;;;;;;;45.20;31.00;;;;;;;;;;5015683;28;20029;-66
2023/04/16 07:28:38;;;;;;;48.30;31.70;;;;;;;;;;5016592;28;20030;-65
2023/04/16 07:31:04;;;;;;;47.63;31.40;;;;;;;;;;5016783;28;20191;-64
2023/04/16 07:33:30;;;;;;;46.45;31.98;;;;;;;;;;5013762;28;20487;-65
2023/04/16 07:35:56;;;;;;;43.63;27.88;;;;;;;;;;5014814;28;20033;-64
2023/04/16 07:38:22;;;;;;;43.03;29.10;;;;;;;;;;5013844;28;20108;-66
2023/04/16 07:40:48;;;;;;;41.78;27.70;;;;;;;;;;5015374;28;20434;-66
2023/04/16 07:43:15;;;;;;;39.63;27.75;;;;;;;;;;5010141;28;20064;-66
2023/04/16 07:45:41;;;;;;;39.38;27.05;;;;;;;;;;5034370;28;20022;-67
2023/04/16 07:48:07;;;;;;;40.67;28.25;;;;;;;;;;5016897;28;20391;-65
2023/04/16 07:50:33;;;;;;;41.35;29.02;;;;;;;;;;5017004;28;20036;-65
2023/04/16 07:52:59;;;;;;;41.67;29.52;;;;;;;;;;5034620;28;20382;-64
2023/04/16 07:55:25;;;;;;;42.67;28.42;;;;;;;;;;5034014;28;20137;-64
2023/04/16 07:57:51;;;;;;;46.20;29.75;;;;;;;;;;5016511;28;20108;-65
2023/04/16 08:00:17;;;;;;;39.83;29.08;;;;;;;;;;5034510;28;20028;-64
2023/04/16 08:02:43;;;;;;;42.30;28.42;;;;;;;;;;5034712;28;20021;-65
2023/04/16 08:05:11;;;;;;;41.63;28.30;;;;;;;;;;5016088;28;20084;-66
2023/04/16 08:07:37;;;;;;;37.10;26.42;;;;;;;;;;5034720;28;20028;-65
2023/04/16 08:10:03;;;;;;;42.72;28.40;;;;;;;;;;5030360;28;20033;-65
2023/04/16 08:12:29;;;;;;;42.13;29.08;;;;;;;;;;5007560;28;20029;-64
2023/04/16 08:14:55;;;;;;;40.83;29.10;;;;;;;;;;5025003;28;20071;-64
2023/04/16 08:17:21;;;;;;;41.75;29.17;;;;;;;;;;5019593;28;20034;-64
2023/04/16 08:19:47;;;;;;;40.45;28.20;;;;;;;;;;5014172;28;20033;-64
2023/04/16 08:22:13;;;;;;;40.50;29.02;;;;;;;;;;5013538;28;20026;-64
2023/04/16 08:24:40;;;;;;;42.67;29.30;;;;;;;;;;5013683;28;20478;-64
2023/04/16 08:27:06;;;;;;;36.20;26.98;;;;;;;;;;4997085;28;20041;-65
2023/04/16 08:29:32;;;;;;;40.10;27.35;;;;;;;;;;5010041;28;20038;-64
2023/04/16 08:32:01;;;;;;;38.92;27.48;;;;;;;;;;5025704;28;20101;-65
2023/04/16 08:34:27;;;;;;;40.88;29.20;;;;;;;;;;5015344;28;20120;-65
2023/04/16 08:36:53;;;;;;;37.13;27.63;;;;;;;;;;5016463;28;20108;-66
2023/04/16 08:39:19;;;;;;;39.45;27.73;;;;;;;;;;5033863;28;20048;-65
2023/04/16 08:41:46;;;;;;;40.28;27.92;;;;;;;;;;5016423;28;20101;-64
2023/04/16 08:44:20;;;;;;;41.33;28.35;;;;;;;;;;5033018;28;20033;-64
2023/04/16 08:46:47;;;;;;;40.13;27.73;;;;;;;;;;5016111;28;20075;-64
2023/04/16 08:49:17;;;;;;;40.90;30.45;;;;;;;;;;5016157;28;20037;-65
2023/04/16 08:51:44;;;;;;;39.72;27.38;;;;;;;;;;5016041;28;20037;-63
2023/04/16 08:54:14;;;;;;;37.03;26.83;;;;;;;;;;5015407;28;20048;-64
2023/04/16 08:56:41;;;;;;;39.35;28.40;;;;;;;;;;5033766;28;20029;-65
2023/04/16 08:59:08;;;;;;;36.78;26.10;;;;;;;;;;5033634;28;20028;-65
2023/04/16 09:01:35;;;;;;;36.17;25.95;;;;;;;;;;5033689;28;20083;-65
2023/04/16 09:04:02;;;;;;;37.42;26.15;;;;;;;;;;5015039;28;20071;-64
2023/04/16 09:06:28;;;;;;;34.22;23.92;;;;;;;;;;5033571;28;20029;-66
2023/04/16 09:08:56;;;;;;;37.05;25.08;;;;;;;;;;5033518;28;20575;-65
2023/04/16 09:11:22;;;;;;;37.90;26.33;;;;;;;;;;5033647;28;20025;-66
2023/04/16 09:13:49;;;;;;;37.95;25.77;;;;;;;;;;5015222;28;20132;-64
2023/04/16 09:16:15;;;;;;;36.60;27.00;;;;;;;;;;5016167;28;20044;-64
2023/04/16 09:18:41;;;;;;;35.35;25.77;;;;;;;;;;5017301;28;20022;-66
2023/04/16 09:21:09;;;;;;;38.00;26.75;;;;;;;;;;5015509;28;20045;-65
2023/04/16 09:23:36;;;;;;;35.13;26.13;;;;;;;;;;5033013;28;20022;-66
2023/04/16 09:26:04;;;;;;;36.50;24.85;;;;;;;;;;5033692;28;20387;-66
2023/04/16 09:28:39;;;;;;;36.40;25.63;;;;;;;;;;5015783;28;20474;-65
2023/04/16 09:31:12;;;;;;;33.78;23.05;;;;;;;;;;5034046;28;20030;-67
2023/04/16 09:33:38;;;;;;;30.60;22.23;;;;;;;;;;5032300;28;20021;-64
2023/04/16 09:36:06;;;;;;;31.15;22.33;;;;;;;;;;5032904;28;20018;-67
2023/04/16 09:38:48;;;;;;;31.80;22.73;;;;;;;;;;5015339;28;20025;-67
2023/04/16 09:41:15;;;;;;;33.78;25.27;;;;;;;;;;5032738;28;20025;-66
2023/04/16 09:43:42;;;;;;;34.40;23.63;;;;;;;;;;5014864;28;20030;-66
2023/04/16 09:46:11;;;;;;;33.40;24.40;;;;;;;;;;5032117;28;20103;-67
2023/04/16 09:48:37;;;;;;;31.98;23.20;;;;;;;;;;5015417;28;20025;-65
2023/04/16 09:51:05;;;;;;;31.02;22.52;;;;;;;;;;5032884;28;20741;-65
2023/04/16 09:53:31;;;;;;;32.40;23.17;;;;;;;;;;5032334;28;20501;-65
2023/04/16 09:56:02;;;;;;;30.95;21.60;;;;;;;;;;5032884;28;20025;-65
2023/04/16 09:58:28;;;;;;;31.83;22.70;;;;;;;;;;5032784;28;20678;-64
2023/04/16 10:01:01;;;;;;;31.10;20.50;;;;;;;;;;5032646;28;20024;-66
2023/04/16 10:03:30;;;;;;;31.27;22.63;;;;;;;;;;5031940;28;20047;-66
2023/04/16 10:06:00;;;;;;;29.85;21.95;;;;;;;;;;5015390;28;20033;-66
2023/04/16 10:08:26;;;;;;;27.38;19.65;;;;;;;;;;5032729;28;20017;-65
2023/04/16 10:10:53;;;;;;;27.58;20.13;;;;;;;;;;5032518;28;20032;-62
2023/04/16 10:13:19;;;;;;;26.85;19.60;;;;;;;;;;5031797;28;20072;-63
2023/04/16 10:15:45;;;;;;;27.30;19.85;;;;;;;;;;5032546;28;20022;-66
2023/04/16 10:18:12;;;;;;;29.77;20.38;;;;;;;;;;5032313;28;20108;-65
2023/04/16 10:20:38;;;;;;;29.13;19.17;;;;;;;;;;5032505;28;20060;-67
2023/04/16 10:23:04;;;;;;;26.15;18.17;;;;;;;;;;5031972;28;20117;-67
2023/04/16 10:25:31;;;;;;;27.42;19.50;;;;;;;;;;5032059;28;20438;-66
2023/04/16 10:27:58;;;;;;;27.70;19.25;;;;;;;;;;5032174;28;20048;-67
2023/04/16 10:30:25;;;;;;;24.85;19.17;;;;;;;;;;5032018;28;20037;-66
2023/04/16 10:32:51;;;;;;;28.98;19.77;;;;;;;;;;5032249;28;20445;-66
2023/04/16 10:35:21;;;;;;;26.98;19.15;;;;;;;;;;5013872;28;20470;-67
2023/04/16 10:37:47;;;;;;;25.88;19.05;;;;;;;;;;5014772;28;20025;-67
2023/04/16 10:40:23;;;;;;;25.85;19.13;;;;;;;;;;5032364;28;20025;-66
2023/04/16 10:42:57;;;;;;;28.30;18.55;;;;;;;;;;5032088;28;20026;-66
2023/04/16 10:45:31;;;;;;;24.42;17.80;;;;;;;;;;5012856;28;20017;-65
2023/04/16 10:47:57;;;;;;;24.77;17.38;;;;;;;;;;5032505;28;20052;-66
2023/04/16 10:50:24;;;;;;;23.48;16.58;;;;;;;;;;5014646;28;20082;-65
2023/04/16 10:53:10;;;;;;;24.75;16.88;;;;;;;;;;5032133;28;20075;-65
2023/04/16 10:55:38;;;;;;;23.73;15.98;;;;;;;;;;5032062;28;20053;-63
2023/04/16 10:58:24;;;;;;;22.08;16.40;;;;;;;;;;5032119;28;20049;-66
2023/04/16 11:00:50;;;;;;;24.63;16.98;;;;;;;;;;5032643;28;20032;-65
2023/04/16 11:03:16;;;;;;;22.27;16.00;;;;;;;;;;5015599;28;20029;-66
2023/04/16 11:05:45;;;;;;;22.65;15.63;;;;;;;;;;5033642;28;20022;-66
2023/04/16 11:08:15;;;;;;;23.13;16.05;;;;;;;;;;5015682;28;20032;-66
2023/04/16 11:10:41;;;;;;;23.23;16.60;;;;;;;;;;5032004;28;20029;-67
2023/04/16 11:13:08;;;;;;;22.85;16.58;;;;;;;;;;5014074;28;20060;-68
2023/04/16 11:15:34;;;;;;;25.35;17.00;;;;;;;;;;5014368;28;20025;-66
2023/04/16 11:18:02;;;;;;;23.38;15.57;;;;;;;;;;5013877;28;20398;-66
2023/04/16 11:20:28;;;;;;;25.13;17.40;;;;;;;;;;5031478;28;20103;-65
2023/04/16 11:22:57;;;;;;;25.05;17.15;;;;;;;;;;5005242;28;20030;-64
2023/04/16 11:25:24;;;;;;;22.38;15.32;;;;;;;;;;5012809;28;20053;-66
2023/04/16 11:27:50;;;;;;;21.33;15.85;;;;;;;;;;5010280;28;20471;-66
2023/04/16 11:30:17;;;;;;;23.35;17.30;;;;;;;;;;5011115;28;20501;-67
2023/04/16 11:32:43;;;;;;;21.95;15.20;;;;;;;;;;5029309;22;20026;-65
2023/04/16 11:35:17;;;;;;;22.02;15.55;;;;;;;;;;5029393;28;20140;-65
2023/04/16 11:37:43;;;;;;;20.92;14.73;;;;;;;;;;5016354;28;20030;-65
2023/04/16 11:40:09;;;;;;;21.90;15.25;;;;;;;;;;5025663;28;20021;-67
2023/04/16 11:42:36;;;;;;;22.50;14.90;;;;;;;;;;5024775;28;20422;-67
2023/04/16 11:45:02;;;;;;;24.00;15.23;;;;;;;;;;5030579;28;20489;-67
2023/04/16 11:47:29;;;;;;;22.35;15.63;;;;;;;;;;5021590;28;20030;-66
2023/04/16 11:49:56;;;;;;;21.00;14.45;;;;;;;;;;5027941;28;20021;-65
2023/04/16 11:52:29;;;;;;;21.88;13.82;;;;;;;;;;5030951;28;20051;-65
2023/04/16 11:54:55;;;;;;;21.40;14.32;;;;;;;;;;4679681;28;9999683;-65
2023/04/16 11:57:28;;;;;;;22.00;15.32;;;;;;;;;;5031164;28;20025;-65
2023/04/16 11:59:55;;;;;;;19.98;13.95;;;;;;;;;;5024118;28;20037;-68
2023/04/16 12:02:34;;;;;;;22.70;15.05;;;;;;;;;;5035133;28;20017;-65
2023/04/16 12:05:01;;;;;;;22.52;14.75;;;;;;;;;;5030481;28;20048;-65
2023/04/16 12:07:27;;;;;;;22.10;15.77;;;;;;;;;;5029530;28;20561;-66
2023/04/16 12:10:05;;;;;;;23.50;15.27;;;;;;;;;;5030650;28;20576;-67
2023/04/16 12:12:31;;;;;;;22.63;16.10;;;;;;;;;;5032556;28;20041;-66
2023/04/16 12:15:02;;;;;;;22.65;16.35;;;;;;;;;;5033776;28;20118;-67
2023/04/16 12:17:28;;;;;;;23.00;15.68;;;;;;;;;;5034316;28;20494;-65
2023/04/16 12:19:58;;;;;;;22.50;15.30;;;;;;;;;;4667460;28;10000569;-65
2023/04/16 12:22:33;;;;;;;23.88;16.63;;;;;;;;;;5031046;28;20245;-65
2023/04/16 12:24:59;;;;;;;26.02;16.85;;;;;;;;;;5012717;28;20025;-65
2023/04/16 12:27:27;;;;;;;25.17;17.20;;;;;;;;;;5031174;28;20061;-65
2023/04/16 12:30:03;;;;;;;24.10;16.83;;;;;;;;;;5031773;28;20029;-67
2023/04/16 12:32:29;;;;;;;23.30;16.25;;;;;;;;;;5030310;28;20108;-66
2023/04/16 12:34:55;;;;;;;24.77;17.20;;;;;;;;;;5030195;28;20064;-65
2023/04/16 12:37:21;;;;;;;24.00;17.25;;;;;;;;;;5031186;28;20563;-66
2023/04/16 12:39:47;;;;;;;27.95;18.88;;;;;;;;;;5030968;28;20053;-65
2023/04/16 12:42:13;;;;;;;26.17;18.92;;;;;;;;;;5030580;28;20504;-65
2023/04/16 12:44:39;;;;;;;25.50;18.77;;;;;;;;;;5029950;28;20029;-65
2023/04/16 12:47:05;;;;;;;25.70;17.85;;;;;;;;;;5030559;28;20048;-65
2023/04/16 12:49:31;;;;;;;25.38;17.60;;;;;;;;;;5030302;28;20029;-64
2023/04/16 12:51:57;;;;;;;26.75;17.88;;;;;;;;;;5030508;28;20160;-64
2023/04/16 12:54:27;;;;;;;25.25;17.95;;;;;;;;;;5030174;28;20524;-64
2023/04/16 12:56:53;;;;;;;25.95;18.38;;;;;;;;;;5030088;28;20029;-64
2023/04/16 12:59:19;;;;;;;26.77;18.83;;;;;;;;;;5023965;28;20054;-65
2023/04/16 13:01:45;;;;;;;25.02;18.95;;;;;;;;;;5030865;28;20045;-66
2023/04/16 13:04:11;;;;;;;25.90;18.42;;;;;;;;;;5029555;28;20018;-66
2023/04/16 13:06:37;;;;;;;28.33;19.27;;;;;;;;;;5027843;28;20046;-66
2023/04/16 13:09:03;;;;;;;26.10;19.20;;;;;;;;;;5028575;28;20140;-68
2023/04/16 13:11:30;;;;;;;28.48;20.10;;;;;;;;;;5028652;28;20068;-66
2023/04/16 13:13:56;;;;;;;23.88;18.25;;;;;;;;;;5028927;28;20029;-68
2023/04/16 13:16:22;;;;;;;26.90;18.63;;;;;;;;;;5029604;28;20032;-69
2023/04/16 13:18:48;;;;;;;25.88;18.60;;;;;;;;;;5011479;28;20055;-65
2023/04/16 13:21:14;;;;;;;25.30;18.52;;;;;;;;;;5011670;28;20690;-66
2023/04/16 13:23:40;;;;;;;27.77;19.67;;;;;;;;;;5011845;28;20022;-64
2023/04/16 13:26:07;;;;;;;25.73;18.30;;;;;;;;;;5029954;28;20030;-65
2023/04/16 13:28:33;;;;;;;26.95;18.80;;;;;;;;;;5030390;28;20048;-65
2023/04/16 13:30:59;;;;;;;25.67;18.65;;;;;;;;;;5029794;28;20121;-67
2023/04/16 13:33:26;;;;;;;25.75;18.88;;;;;;;;;;5010859;28;20033;-66
2023/04/16 13:35:52;;;;;;;26.05;18.60;;;;;;;;;;5029432;28;20203;-66
2023/04/16 13:38:18;;;;;;;26.25;18.70;;;;;;;;;;5029531;28;20112;-66
2023/04/16 13:40:44;;;;;;;28.80;18.90;;;;;;;;;;5029798;28;20025;-66
2023/04/16 13:43:10;;;;;;;27.50;18.95;;;;;;;;;;5011045;28;20504;-67
2023/04/16 13:45:39;;;;;;;24.77;17.35;;;;;;;;;;5029204;28;20040;-66
2023/04/16 13:48:05;;;;;;;;;;;;;;;;;;5012394;28;20060;-67
2023/04/16 13:50:31;;;;;;;24.88;17.70;;;;;;;;;;5029403;28;20477;-65
2023/04/16 13:52:57;;;;;;;24.70;17.85;;;;;;;;;;5029195;28;20029;-65
2023/04/16 13:55:23;;;;;;;26.27;17.00;;;;;;;;;;5028770;28;20075;-65
2023/04/16 13:57:51;;;;;;;26.63;18.30;;;;;;;;;;5010664;28;20124;-68
2023/04/16 14:00:17;;;;;;;25.17;17.33;;;;;;;;;;5014692;28;20068;-69
2023/04/16 14:02:44;;;;;;;24.33;17.73;;;;;;;;;;5029777;28;20033;-67
2023/04/16 14:05:10;;;;;;;23.48;16.13;;;;;;;;;;5016006;28;20486;-68
2023/04/16 14:07:37;;;;;;;25.60;17.75;;;;;;;;;;5028685;28;20041;-69
2023/04/16 14:10:03;;;;;;;25.33;18.73;;;;;;;;;;5010954;28;20025;-68
2023/04/16 14:12:29;;;;;;;25.15;18.13;;;;;;;;;;5011143;28;20029;-68